createdAt,value
2022-09-16T00:01:59.996Z,17.23
2022-09-16T00:12:10.069Z,22.30
2022-09-16T00:17:14.114Z,18.80
2022-09-16T00:22:19.801Z,17.40
2022-09-16T00:27:23.938Z,16.77
2022-09-16T00:32:27.306Z,19.65
2022-09-16T00:37:34.964Z,14.35
2022-09-16T00:42:39.794Z,19.25
2022-09-16T00:57:57.248Z,18.80
2022-09-16T01:03:00.760Z,23.85
2022-09-16T01:08:05.699Z,22.83
2022-09-16T01:13:12.839Z,19.38
2022-09-16T01:18:23.565Z,19.10
2022-09-16T01:24:00.815Z,16.92
2022-09-16T01:29:39.949Z,18.60
2022-09-16T01:34:52.047Z,17.05
2022-09-16T01:40:09.015Z,18.15
2022-09-16T01:45:18.680Z,18.65
2022-09-16T01:50:31.238Z,25.90
2022-09-16T01:55:37.899Z,23.33
2022-09-16T02:00:44.180Z,27.88
2022-09-16T02:05:53.777Z,26.23
2022-09-16T02:11:00.790Z,27.40
2022-09-16T02:16:11.319Z,28.08
2022-09-16T02:21:17.939Z,18.90
2022-09-16T02:26:26.098Z,27.27
2022-09-16T02:31:35.243Z,20.08
2022-09-16T02:36:41.906Z,24.80
2022-09-16T02:41:45.386Z,30.10
2022-09-16T02:46:57.831Z,26.23
2022-09-16T02:52:17.613Z,33.28
2022-09-16T02:57:21.536Z,27.38
2022-09-16T03:02:25.052Z,21.30
2022-09-16T03:07:29.939Z,23.92
2022-09-16T03:18:23.196Z,22.95
2022-09-16T03:23:44.972Z,22.00
2022-09-16T03:28:59.105Z,28.15
2022-09-16T03:34:07.602Z,28.02
2022-09-16T03:39:13.374Z,25.40
2022-09-16T03:44:16.785Z,28.35
2022-09-16T03:49:20.105Z,23.52
2022-09-16T03:54:25.427Z,27.38
2022-09-16T03:59:29.163Z,28.15
2022-09-16T04:04:32.528Z,25.10
2022-09-16T04:09:38.577Z,27.33
2022-09-16T04:14:42.007Z,28.40
2022-09-16T04:19:45.481Z,30.00
2022-09-16T04:24:50.172Z,30.75
2022-09-16T04:29:53.498Z,31.60
2022-09-16T04:34:56.920Z,30.30
2022-09-16T04:40:04.719Z,27.73
2022-09-16T04:45:09.629Z,28.75
2022-09-16T04:50:12.990Z,24.17
2022-09-16T04:55:18.135Z,27.52
2022-09-16T05:00:21.761Z,24.20
2022-09-16T05:05:25.162Z,25.20
2022-09-16T05:10:29.877Z,24.23
2022-09-16T05:15:35.383Z,25.60
2022-09-16T05:20:38.979Z,21.80
2022-09-16T05:25:43.663Z,24.95
2022-09-16T05:30:47.013Z,25.38
2022-09-16T05:35:50.430Z,31.17
2022-09-16T05:40:59.746Z,19.67
2022-09-16T05:46:03.855Z,24.92
2022-09-16T05:51:08.230Z,26.77
2022-09-16T05:56:14.972Z,23.40
2022-09-16T06:01:20.774Z,22.77
2022-09-16T06:06:26.181Z,23.10
2022-09-16T06:11:31.017Z,20.45
2022-09-16T06:21:37.897Z,18.55
2022-09-16T06:26:44.632Z,21.48
2022-09-16T06:31:48.059Z,21.90
2022-09-16T06:36:51.396Z,22.50
2022-09-16T06:41:56.133Z,21.83
2022-09-16T06:52:02.684Z,21.73
2022-09-16T06:57:11.902Z,25.88
2022-09-16T07:02:16.730Z,27.67
2022-09-16T07:07:20.179Z,20.20
2022-09-16T07:12:24.948Z,20.55
2022-09-16T07:17:28.615Z,23.92
2022-09-16T07:22:33.092Z,23.57
2022-09-16T07:27:37.944Z,23.95
2022-09-16T07:32:41.275Z,26.13
2022-09-16T07:37:44.595Z,27.42
2022-09-16T07:42:49.330Z,21.88
2022-09-16T07:47:52.765Z,25.00
2022-09-16T07:52:56.234Z,22.98
2022-09-16T07:58:01.010Z,19.90
2022-09-16T08:03:06.080Z,22.23
2022-09-16T08:08:09.712Z,21.60
2022-09-16T08:13:14.415Z,20.93
2022-09-16T08:18:17.948Z,20.05
2022-09-16T08:23:21.394Z,23.53
2022-09-16T08:28:27.948Z,20.13
2022-09-16T08:33:35.864Z,19.75
2022-09-16T08:38:39.307Z,19.10
2022-09-16T08:43:48.823Z,17.53
2022-09-16T08:49:04.832Z,17.88
2022-09-16T08:54:13.841Z,16.60
2022-09-16T08:59:23.186Z,15.30
2022-09-16T09:04:26.784Z,17.83
2022-09-16T09:09:48.479Z,15.87
2022-09-16T09:15:08.367Z,14.95
2022-09-16T09:20:23.926Z,11.60
2022-09-16T09:25:35.370Z,12.68
2022-09-16T09:30:45.675Z,12.68
2022-09-16T09:35:59.733Z,13.80
2022-09-16T09:41:10.933Z,14.07
2022-09-16T09:46:22.207Z,10.25
2022-09-16T09:51:31.219Z,11.00
2022-09-16T09:56:37.878Z,14.38
2022-09-16T10:01:43.908Z,11.25
2022-09-16T10:06:47.611Z,10.20
2022-09-16T10:11:55.198Z,12.40
2022-09-16T10:17:03.000Z,9.63
2022-09-16T10:22:12.128Z,10.63
2022-09-16T10:27:25.667Z,9.75
2022-09-16T10:32:30.821Z,10.85
2022-09-16T10:37:34.193Z,11.55
2022-09-16T10:42:37.643Z,10.32
2022-09-16T10:47:42.742Z,9.70
2022-09-16T10:52:48.138Z,13.10
2022-09-16T10:57:52.194Z,12.45
2022-09-16T11:03:37.491Z,15.65
2022-09-16T11:08:54.899Z,18.08
2022-09-16T11:14:06.739Z,14.38
2022-09-16T11:19:16.494Z,17.38
2022-09-16T11:24:36.468Z,16.88
2022-09-16T11:29:52.090Z,18.88
2022-09-16T11:35:17.583Z,19.27
2022-09-16T11:40:32.739Z,20.70
2022-09-16T11:45:48.431Z,31.65
2022-09-16T11:51:00.459Z,22.35
2022-09-16T11:56:09.813Z,23.83
2022-09-16T12:01:21.851Z,24.50
2022-09-16T12:06:31.767Z,20.83
2022-09-16T12:11:39.125Z,22.25
2022-09-16T12:16:48.514Z,30.80
2022-09-16T12:21:58.379Z,36.13
2022-09-16T12:27:08.337Z,42.53
2022-09-16T12:32:16.177Z,40.35
2022-09-16T12:37:38.696Z,37.05
2022-09-16T12:43:06.229Z,34.03
2022-09-16T12:48:45.779Z,35.40
2022-09-16T12:54:12.817Z,27.70
2022-09-16T12:59:47.218Z,27.92
2022-09-16T13:04:54.104Z,36.83
2022-09-16T13:10:07.162Z,40.13
2022-09-16T13:15:25.943Z,29.55
2022-09-16T13:20:34.092Z,30.88
2022-09-16T13:25:49.272Z,25.77
2022-09-16T13:30:54.669Z,24.10
2022-09-16T13:36:17.999Z,26.08
2022-09-16T13:41:35.539Z,26.77
2022-09-16T13:46:41.031Z,30.52
2022-09-16T13:51:46.480Z,25.73
2022-09-16T13:57:01.087Z,26.00
2022-09-16T14:07:36.742Z,27.27
2022-09-16T14:12:49.450Z,29.27
2022-09-16T14:17:59.697Z,27.95
2022-09-16T14:23:05.995Z,26.20
2022-09-16T14:28:20.538Z,23.42
2022-09-16T14:33:29.537Z,25.38
2022-09-16T14:38:46.120Z,37.53
2022-09-16T14:43:51.007Z,19.40
2022-09-16T14:48:56.032Z,17.70
2022-09-16T14:54:12.268Z,20.92
2022-09-16T14:59:17.385Z,16.67
2022-09-16T15:04:28.157Z,17.20
2022-09-16T15:09:38.458Z,18.08
2022-09-16T15:14:42.019Z,23.13
2022-09-16T15:19:52.402Z,17.08
2022-09-16T15:24:59.560Z,16.70
2022-09-16T15:30:06.096Z,16.85
2022-09-16T15:35:23.702Z,15.93
2022-09-16T15:40:36.184Z,17.25
2022-09-16T15:45:40.259Z,15.65
2022-09-16T15:50:48.660Z,18.17
2022-09-16T15:56:02.249Z,21.88
2022-09-16T16:01:10.668Z,25.35
2022-09-16T16:06:16.047Z,31.80
2022-09-16T16:11:21.336Z,41.13
2022-09-16T16:16:26.505Z,44.83
2022-09-16T16:21:31.745Z,51.33
2022-09-16T16:26:35.850Z,45.38
2022-09-16T16:31:39.739Z,36.15
2022-09-16T16:36:45.001Z,37.28
2022-09-16T16:41:48.633Z,36.75
2022-09-16T16:46:53.176Z,27.65
2022-09-16T16:51:59.005Z,33.20
2022-09-16T16:57:04.041Z,32.65
2022-09-16T17:02:07.924Z,34.42
2022-09-16T17:07:28.881Z,27.27
2022-09-16T17:12:33.018Z,27.65
2022-09-16T17:17:36.958Z,24.90
2022-09-16T17:22:42.899Z,23.87
2022-09-16T17:27:46.806Z,28.58
2022-09-16T17:32:50.569Z,31.07
2022-09-16T17:37:55.647Z,28.90
2022-09-16T17:42:59.762Z,24.55
2022-09-16T17:48:03.844Z,26.40
2022-09-16T17:53:09.419Z,25.65
2022-09-16T17:58:12.940Z,32.50
2022-09-16T18:03:16.677Z,27.92
2022-09-16T18:08:22.326Z,27.20
2022-09-16T18:13:26.087Z,31.70
2022-09-16T18:18:31.815Z,35.17
2022-09-16T18:23:37.554Z,31.08
2022-09-16T18:29:07.966Z,47.13
2022-09-16T18:34:07.309Z,28.50
2022-09-16T18:39:14.935Z,34.80
2022-09-16T18:44:20.773Z,36.50
2022-09-16T18:49:26.531Z,34.28
2022-09-16T18:54:33.225Z,37.75
2022-09-16T18:59:40.257Z,36.38
2022-09-16T19:04:44.896Z,38.07
2022-09-16T19:14:56.207Z,33.72
2022-09-16T19:20:00.747Z,46.15
2022-09-16T19:30:09.923Z,41.03
2022-09-16T19:35:13.655Z,43.63
2022-09-16T19:40:18.966Z,71.37
2022-09-16T19:45:27.232Z,104.57
2022-09-16T19:50:31.167Z,75.65
2022-09-16T19:55:35.903Z,61.17
2022-09-16T20:00:55.303Z,48.13
2022-09-16T20:06:03.242Z,41.90
2022-09-16T20:11:10.630Z,35.50
2022-09-16T20:16:14.199Z,67.32
2022-09-16T20:21:20.029Z,62.30
2022-09-16T20:26:24.987Z,42.38
2022-09-16T20:31:31.203Z,44.90
2022-09-16T20:36:38.358Z,62.20
2022-09-16T20:41:45.753Z,88.03
2022-09-16T20:46:50.190Z,52.70
2022-09-16T20:51:53.671Z,66.00
2022-09-16T20:56:58.402Z,146.88
2022-09-16T21:07:07.618Z,67.13
2022-09-16T21:12:12.363Z,21.13
2022-09-16T21:22:23.681Z,20.23
2022-09-16T21:27:28.420Z,19.97
2022-09-16T21:37:36.022Z,17.95
2022-09-16T21:42:41.151Z,17.17
2022-09-16T21:47:44.443Z,16.83
2022-09-16T21:52:47.745Z,15.30
2022-09-16T21:57:52.410Z,14.60
2022-09-16T22:08:00.968Z,15.93
2022-09-16T22:13:05.732Z,25.83
2022-09-16T22:23:12.170Z,23.63
2022-09-16T22:28:16.947Z,20.88
2022-09-16T22:38:23.380Z,29.98
2022-09-16T22:43:28.094Z,32.78
2022-09-16T22:48:31.882Z,45.13
2022-09-16T22:53:36.058Z,25.77
2022-09-16T22:58:40.797Z,29.33
2022-09-16T23:08:47.977Z,31.08
2022-09-16T23:13:54.968Z,34.90
2022-09-16T23:19:00.109Z,39.88
2022-09-16T23:24:05.514Z,29.48
2022-09-16T23:29:12.158Z,25.30
2022-09-16T23:34:18.191Z,32.35
2022-09-16T23:39:21.744Z,34.03
2022-09-16T23:44:26.485Z,30.08
2022-09-16T23:54:32.884Z,31.65
2022-09-16T23:59:37.622Z,32.47
